sensor_id;sensor_type;location;lat;lon;timestamp;pressure;altitude;pressure_sealevel;temperature;humidity
46598;BME280;32318;48.858;8.252;2023-09-18T00:05:35;99521.22;;;22.20;61.39
46598;BME280;32318;48.858;8.252;2023-09-18T00:13:36;99512.72;;;22.11;61.89
46598;BME280;32318;48.858;8.252;2023-09-18T00:21:36;99518.34;;;21.99;62.72
46598;BME280;32318;48.858;8.252;2023-09-18T00:29:36;99523.06;;;21.82;63.07
46598;BME280;32318;48.858;8.252;2023-09-18T00:37:37;99511.28;;;21.71;63.72
46598;BME280;32318;48.858;8.252;2023-09-18T00:45:42;99514.19;;;21.64;65.53
46598;BME280;32318;48.858;8.252;2023-09-18T00:53:45;99541.28;;;21.59;65.52
46598;BME280;32318;48.858;8.252;2023-09-18T01:01:48;99552.81;;;21.49;66.38
46598;BME280;32318;48.858;8.252;2023-09-18T01:09:50;99549.97;;;21.39;67.04
46598;BME280;32318;48.858;8.252;2023-09-18T01:17:51;99539.38;;;21.37;66.47
46598;BME280;32318;48.858;8.252;2023-09-18T01:25:51;99553.41;;;21.29;66.62
46598;BME280;32318;48.858;8.252;2023-09-18T01:33:52;99545.44;;;21.22;68.54
46598;BME280;32318;48.858;8.252;2023-09-18T01:41:53;99585.50;;;21.32;68.54
46598;BME280;32318;48.858;8.252;2023-09-18T01:49:53;99612.31;;;21.28;68.59
46598;BME280;32318;48.858;8.252;2023-09-18T01:57:53;99625.13;;;21.33;68.95
46598;BME280;32318;48.858;8.252;2023-09-18T02:05:54;99646.84;;;21.33;67.65
46598;BME280;32318;48.858;8.252;2023-09-18T02:13:54;99607.22;;;21.32;67.95
46598;BME280;32318;48.858;8.252;2023-09-18T02:21:56;99611.47;;;21.28;68.53
46598;BME280;32318;48.858;8.252;2023-09-18T02:29:57;99586.47;;;21.26;68.16
46598;BME280;32318;48.858;8.252;2023-09-18T02:37:58;99549.78;;;21.23;68.90
46598;BME280;32318;48.858;8.252;2023-09-18T02:45:59;99538.09;;;21.00;70.05
46598;BME280;32318;48.858;8.252;2023-09-18T02:54:00;99582.94;;;20.86;72.33
46598;BME280;32318;48.858;8.252;2023-09-18T03:02:00;99571.44;;;20.79;72.92
46598;BME280;32318;48.858;8.252;2023-09-18T03:10:01;99621.00;;;20.74;74.09
46598;BME280;32318;48.858;8.252;2023-09-18T03:18:02;99706.53;;;20.65;74.36
46598;BME280;32318;48.858;8.252;2023-09-18T03:26:03;99712.69;;;20.60;74.50
46598;BME280;32318;48.858;8.252;2023-09-18T03:34:03;99759.63;;;20.61;75.46
46598;BME280;32318;48.858;8.252;2023-09-18T03:42:04;99744.41;;;20.31;76.86
46598;BME280;32318;48.858;8.252;2023-09-18T03:50:08;99690.28;;;20.07;80.05
46598;BME280;32318;48.858;8.252;2023-09-18T03:58:09;99645.91;;;19.96;78.83
46598;BME280;32318;48.858;8.252;2023-09-18T04:06:10;99569.66;;;20.04;78.83
46598;BME280;32318;48.858;8.252;2023-09-18T04:14:10;99535.75;;;20.02;79.24
46598;BME280;32318;48.858;8.252;2023-09-18T04:22:12;99496.97;;;20.01;79.89
46598;BME280;32318;48.858;8.252;2023-09-18T04:30:12;99462.06;;;20.05;80.61
46598;BME280;32318;48.858;8.252;2023-09-18T04:38:14;99455.09;;;20.09;79.56
46598;BME280;32318;48.858;8.252;2023-09-18T04:46:19;99479.41;;;20.04;80.25
46598;BME280;32318;48.858;8.252;2023-09-18T04:54:19;99490.75;;;20.01;80.45
46598;BME280;32318;48.858;8.252;2023-09-18T05:02:19;99498.28;;;19.99;80.78
46598;BME280;32318;48.858;8.252;2023-09-18T05:10:20;99502.66;;;20.00;82.78
46598;BME280;32318;48.858;8.252;2023-09-18T05:18:20;99514.06;;;20.02;83.14
46598;BME280;32318;48.858;8.252;2023-09-18T05:26:20;99523.25;;;20.01;84.28
46598;BME280;32318;48.858;8.252;2023-09-18T05:34:23;99542.22;;;20.01;83.83
46598;BME280;32318;48.858;8.252;2023-09-18T05:42:23;99551.81;;;20.09;83.65
46598;BME280;32318;48.858;8.252;2023-09-18T05:50:24;99556.63;;;20.18;83.04
46598;BME280;32318;48.858;8.252;2023-09-18T05:58:27;99577.47;;;20.18;81.55
46598;BME280;32318;48.858;8.252;2023-09-18T06:06:28;99612.03;;;20.11;82.58
46598;BME280;32318;48.858;8.252;2023-09-18T06:14:28;99598.47;;;20.11;83.47
46598;BME280;32318;48.858;8.252;2023-09-18T06:22:28;99606.34;;;20.12;82.85
46598;BME280;32318;48.858;8.252;2023-09-18T06:30:29;99614.00;;;20.15;82.74
46598;BME280;32318;48.858;8.252;2023-09-18T06:38:31;99659.28;;;20.15;84.26
46598;BME280;32318;48.858;8.252;2023-09-18T06:46:31;99655.25;;;20.17;83.62
46598;BME280;32318;48.858;8.252;2023-09-18T06:54:31;99676.44;;;20.20;82.98
46598;BME280;32318;48.858;8.252;2023-09-18T07:02:31;99662.41;;;20.24;82.41
46598;BME280;32318;48.858;8.252;2023-09-18T07:10:32;99661.94;;;20.27;82.51
46598;BME280;32318;48.858;8.252;2023-09-18T07:18:33;99673.19;;;20.35;80.76
46598;BME280;32318;48.858;8.252;2023-09-18T07:26:33;99671.66;;;20.40;79.64
46598;BME280;32318;48.858;8.252;2023-09-18T07:34:34;99680.00;;;20.38;78.51
46598;BME280;32318;48.858;8.252;2023-09-18T07:42:36;99675.31;;;20.33;77.90
46598;BME280;32318;48.858;8.252;2023-09-18T07:50:42;99673.09;;;20.30;77.27
46598;BME280;32318;48.858;8.252;2023-09-18T07:58:45;99682.56;;;20.28;78.01
46598;BME280;32318;48.858;8.252;2023-09-18T08:06:47;99665.22;;;20.29;78.14
46598;BME280;32318;48.858;8.252;2023-09-18T08:14:47;99639.59;;;20.36;77.75
46598;BME280;32318;48.858;8.252;2023-09-18T08:22:49;99622.84;;;20.40;77.87
46598;BME280;32318;48.858;8.252;2023-09-18T08:30:50;99647.00;;;20.41;78.63
46598;BME280;32318;48.858;8.252;2023-09-18T08:38:50;99641.91;;;20.45;77.68
46598;BME280;32318;48.858;8.252;2023-09-18T08:46:51;99655.31;;;20.51;76.99
46598;BME280;32318;48.858;8.252;2023-09-18T08:54:54;99659.69;;;20.52;76.76
46598;BME280;32318;48.858;8.252;2023-09-18T09:02:54;99688.66;;;20.52;75.94
46598;BME280;32318;48.858;8.252;2023-09-18T09:10:55;99703.06;;;20.52;75.44
46598;BME280;32318;48.858;8.252;2023-09-18T09:18:58;99709.63;;;20.57;75.31
46598;BME280;32318;48.858;8.252;2023-09-18T09:26:58;99689.91;;;20.61;74.49
46598;BME280;32318;48.858;8.252;2023-09-18T09:34:59;99683.03;;;20.71;73.90
46598;BME280;32318;48.858;8.252;2023-09-18T09:43:00;99685.88;;;20.76;73.27
46598;BME280;32318;48.858;8.252;2023-09-18T09:51:01;99687.34;;;20.83;72.80
46598;BME280;32318;48.858;8.252;2023-09-18T09:59:02;99689.66;;;20.92;72.24
46598;BME280;32318;48.858;8.252;2023-09-18T10:07:08;99714.34;;;20.90;71.64
46598;BME280;32318;48.858;8.252;2023-09-18T10:15:10;99695.72;;;20.99;69.38
46598;BME280;32318;48.858;8.252;2023-09-18T10:23:24;99700.69;;;21.19;69.59
46598;BME280;32318;48.858;8.252;2023-09-18T10:31:27;99697.88;;;21.31;68.36
46598;BME280;32318;48.858;8.252;2023-09-18T10:39:28;99685.53;;;21.40;69.06
46598;BME280;32318;48.858;8.252;2023-09-18T10:47:31;99681.38;;;21.55;68.78
46598;BME280;32318;48.858;8.252;2023-09-18T10:55:31;99702.25;;;21.71;67.88
46598;BME280;32318;48.858;8.252;2023-09-18T11:03:34;99700.25;;;21.84;67.23
46598;BME280;32318;48.858;8.252;2023-09-18T11:11:40;99706.47;;;22.01;66.61
46598;BME280;32318;48.858;8.252;2023-09-18T11:19:46;99706.97;;;22.25;65.47
46598;BME280;32318;48.858;8.252;2023-09-18T11:27:53;99711.34;;;22.49;64.08
46598;BME280;32318;48.858;8.252;2023-09-18T11:36:02;99715.34;;;22.68;64.30
46598;BME280;32318;48.858;8.252;2023-09-18T11:52:19;99696.44;;;22.84;60.28
46598;BME280;32318;48.858;8.252;2023-09-18T12:00:20;99698.25;;;23.06;61.03
46598;BME280;32318;48.858;8.252;2023-09-18T12:08:24;99691.72;;;23.07;60.79
46598;BME280;32318;48.858;8.252;2023-09-18T12:16:28;99673.75;;;23.06;60.74
46598;BME280;32318;48.858;8.252;2023-09-18T12:24:28;99667.47;;;23.05;57.86
46598;BME280;32318;48.858;8.252;2023-09-18T12:32:29;99681.28;;;23.26;59.68
46598;BME280;32318;48.858;8.252;2023-09-18T12:40:30;99673.97;;;23.37;59.39
46598;BME280;32318;48.858;8.252;2023-09-18T12:48:37;99666.94;;;23.46;58.30
46598;BME280;32318;48.858;8.252;2023-09-18T12:56:41;99667.13;;;23.82;58.01
46598;BME280;32318;48.858;8.252;2023-09-18T13:04:54;99649.13;;;23.81;56.81
46598;BME280;32318;48.858;8.252;2023-09-18T13:12:55;99644.75;;;23.85;58.40
46598;BME280;32318;48.858;8.252;2023-09-18T13:20:56;99627.97;;;24.04;57.91
46598;BME280;32318;48.858;8.252;2023-09-18T13:28:57;99637.81;;;24.31;56.43
46598;BME280;32318;48.858;8.252;2023-09-18T13:36:57;99631.56;;;24.46;56.73
46598;BME280;32318;48.858;8.252;2023-09-18T13:45:01;99640.28;;;24.27;56.44
46598;BME280;32318;48.858;8.252;2023-09-18T13:53:02;99627.72;;;24.16;56.51
46598;BME280;32318;48.858;8.252;2023-09-18T14:01:04;99620.91;;;24.18;55.74
46598;BME280;32318;48.858;8.252;2023-09-18T14:09:05;99612.50;;;24.40;55.62
46598;BME280;32318;48.858;8.252;2023-09-18T14:17:06;99601.00;;;24.33;55.47
46598;BME280;32318;48.858;8.252;2023-09-18T14:25:06;99602.38;;;24.51;56.52
46598;BME280;32318;48.858;8.252;2023-09-18T14:33:07;99589.56;;;24.67;55.71
46598;BME280;32318;48.858;8.252;2023-09-18T14:41:08;99572.66;;;24.70;55.04
46598;BME280;32318;48.858;8.252;2023-09-18T14:49:09;99567.47;;;24.74;55.41
46598;BME280;32318;48.858;8.252;2023-09-18T14:57:09;99549.69;;;24.87;55.28
46598;BME280;32318;48.858;8.252;2023-09-18T15:05:10;99528.66;;;24.93;55.13
46598;BME280;32318;48.858;8.252;2023-09-18T15:13:12;99524.56;;;24.90;54.48
46598;BME280;32318;48.858;8.252;2023-09-18T15:21:14;99511.75;;;24.80;53.42
46598;BME280;32318;48.858;8.252;2023-09-18T15:29:14;99515.59;;;24.74;54.96
46598;BME280;32318;48.858;8.252;2023-09-18T15:37:16;99513.16;;;24.52;53.80
46598;BME280;32318;48.858;8.252;2023-09-18T15:45:16;99514.81;;;24.48;55.04
46598;BME280;32318;48.858;8.252;2023-09-18T15:53:16;99515.09;;;24.36;53.76
46598;BME280;32318;48.858;8.252;2023-09-18T16:01:17;99507.44;;;24.33;55.34
46598;BME280;32318;48.858;8.252;2023-09-18T16:09:17;99504.72;;;24.27;55.59
46598;BME280;32318;48.858;8.252;2023-09-18T16:17:17;99511.53;;;24.15;55.82
46598;BME280;32318;48.858;8.252;2023-09-18T16:25:19;99515.34;;;24.03;55.92
46598;BME280;32318;48.858;8.252;2023-09-18T16:33:20;99515.84;;;23.85;56.47
46598;BME280;32318;48.858;8.252;2023-09-18T16:41:20;99515.53;;;23.71;57.04
46598;BME280;32318;48.858;8.252;2023-09-18T16:49:20;99529.41;;;23.54;57.77
46598;BME280;32318;48.858;8.252;2023-09-18T16:57:23;99512.16;;;23.32;57.41
46598;BME280;32318;48.858;8.252;2023-09-18T17:05:31;99677.25;;;22.68;62.85
46598;BME280;32318;48.858;8.252;2023-09-18T17:13:34;99675.84;;;21.10;64.78
46598;BME280;32318;48.858;8.252;2023-09-18T17:21:34;99669.88;;;20.45;68.97
46598;BME280;32318;48.858;8.252;2023-09-18T17:29:35;99686.72;;;20.18;70.33
46598;BME280;32318;48.858;8.252;2023-09-18T17:37:35;99696.88;;;19.99;70.78
46598;BME280;32318;48.858;8.252;2023-09-18T17:45:36;99711.41;;;19.81;71.26
46598;BME280;32318;48.858;8.252;2023-09-18T17:53:36;99699.66;;;19.64;73.62
46598;BME280;32318;48.858;8.252;2023-09-18T18:01:36;99663.03;;;19.61;72.17
46598;BME280;32318;48.858;8.252;2023-09-18T18:09:37;99631.25;;;19.56;73.73
46598;BME280;32318;48.858;8.252;2023-09-18T18:17:37;99649.41;;;19.44;74.84
46598;BME280;32318;48.858;8.252;2023-09-18T18:25:38;99647.06;;;19.36;74.74
46598;BME280;32318;48.858;8.252;2023-09-18T18:33:39;99609.78;;;19.26;74.28
46598;BME280;32318;48.858;8.252;2023-09-18T18:41:40;99613.06;;;19.16;76.09
46598;BME280;32318;48.858;8.252;2023-09-18T18:49:41;99626.25;;;19.12;75.42
46598;BME280;32318;48.858;8.252;2023-09-18T18:57:41;99643.53;;;19.00;76.25
46598;BME280;32318;48.858;8.252;2023-09-18T19:05:43;99654.00;;;19.08;77.79
46598;BME280;32318;48.858;8.252;2023-09-18T19:13:45;99681.31;;;19.18;77.62
46598;BME280;32318;48.858;8.252;2023-09-18T19:21:47;99696.03;;;19.22;78.32
46598;BME280;32318;48.858;8.252;2023-09-18T19:29:49;99713.06;;;19.23;78.99
46598;BME280;32318;48.858;8.252;2023-09-18T19:37:51;99703.44;;;19.15;78.95
46598;BME280;32318;48.858;8.252;2023-09-18T19:45:51;99709.91;;;19.14;78.70
46598;BME280;32318;48.858;8.252;2023-09-18T19:53:51;99729.19;;;19.06;79.43
46598;BME280;32318;48.858;8.252;2023-09-18T20:01:53;99715.19;;;19.09;79.21
46598;BME280;32318;48.858;8.252;2023-09-18T20:09:53;99732.00;;;19.11;78.22
46598;BME280;32318;48.858;8.252;2023-09-18T20:17:54;99721.53;;;19.03;76.66
46598;BME280;32318;48.858;8.252;2023-09-18T20:25:54;99728.00;;;19.02;78.31
46598;BME280;32318;48.858;8.252;2023-09-18T20:33:55;99722.34;;;19.03;78.72
46598;BME280;32318;48.858;8.252;2023-09-18T20:41:56;99732.22;;;18.98;79.00
46598;BME280;32318;48.858;8.252;2023-09-18T20:49:57;99747.13;;;18.88;79.36
46598;BME280;32318;48.858;8.252;2023-09-18T20:57:58;99747.13;;;18.88;79.53
46598;BME280;32318;48.858;8.252;2023-09-18T21:05:58;99751.56;;;18.83;79.41
46598;BME280;32318;48.858;8.252;2023-09-18T21:13:58;99768.44;;;18.66;79.30
46598;BME280;32318;48.858;8.252;2023-09-18T21:21:58;99774.47;;;18.49;79.68
46598;BME280;32318;48.858;8.252;2023-09-18T21:29:59;99764.78;;;18.42;79.06
46598;BME280;32318;48.858;8.252;2023-09-18T21:38:01;99773.22;;;18.33;79.87
46598;BME280;32318;48.858;8.252;2023-09-18T21:46:03;99785.06;;;18.32;79.19
46598;BME280;32318;48.858;8.252;2023-09-18T21:54:03;99788.09;;;18.24;79.36
46598;BME280;32318;48.858;8.252;2023-09-18T22:02:04;99801.59;;;18.24;79.43
46598;BME280;32318;48.858;8.252;2023-09-18T22:10:05;99804.91;;;18.26;78.06
46598;BME280;32318;48.858;8.252;2023-09-18T22:18:05;99821.25;;;18.31;77.63
46598;BME280;32318;48.858;8.252;2023-09-18T22:26:05;99824.13;;;18.37;77.70
46598;BME280;32318;48.858;8.252;2023-09-18T22:34:08;99843.63;;;18.39;79.25
46598;BME280;32318;48.858;8.252;2023-09-18T22:58:49;99826.81;;;18.18;80.23
46598;BME280;32318;48.858;8.252;2023-09-18T23:06:49;99831.63;;;18.16;81.23
46598;BME280;32318;48.858;8.252;2023-09-18T23:14:49;99833.50;;;18.15;81.35
46598;BME280;32318;48.858;8.252;2023-09-18T23:22:53;99833.13;;;18.12;81.03
46598;BME280;32318;48.858;8.252;2023-09-18T23:30:55;99846.84;;;18.10;80.09
46598;BME280;32318;48.858;8.252;2023-09-18T23:39:00;99859.53;;;18.10;80.67
46598;BME280;32318;48.858;8.252;2023-09-18T23:47:07;99882.19;;;18.09;80.21
46598;BME280;32318;48.858;8.252;2023-09-18T23:55:08;99875.81;;;18.03;80.08
